createdAt,value
2019-05-01T00:02:55.069Z,25.07
2019-05-01T00:05:35.976Z,25.08
2019-05-01T00:08:10.032Z,25.08
2019-05-01T00:10:43.735Z,25.07
2019-05-01T00:13:17.444Z,25.06
2019-05-01T00:15:51.590Z,25.07
2019-05-01T00:18:25.679Z,25.06
2019-05-01T00:20:59.546Z,25.05
2019-05-01T00:23:33.290Z,25.06
2019-05-01T00:26:07.010Z,25.07
2019-05-01T00:28:40.757Z,25.06
2019-05-01T00:31:14.528Z,25.07
2019-05-01T00:33:48.397Z,25.06
2019-05-01T00:36:22.462Z,25.06
2019-05-01T00:38:56.167Z,25.06
2019-05-01T00:41:29.908Z,25.05
2019-05-01T00:44:03.604Z,25.06
2019-05-01T00:46:37.355Z,25.04
2019-05-01T00:49:11.332Z,25.05
2019-05-01T00:51:46.197Z,25.05
2019-05-01T00:54:20.012Z,25.04
2019-05-01T00:57:02.608Z,25.04
2019-05-01T00:59:46.144Z,25.05
2019-05-01T01:02:35.012Z,25.04
2019-05-01T01:05:08.806Z,25.05
2019-05-01T01:07:42.614Z,25.04
2019-05-01T01:10:16.434Z,25.05
2019-05-01T01:12:50.217Z,25.05
2019-05-01T01:15:24.158Z,25.05
2019-05-01T01:17:58.020Z,25.04
2019-05-01T01:20:32.205Z,25.05
2019-05-01T01:23:06.098Z,25.04
2019-05-01T01:25:39.946Z,25.04
2019-05-01T01:28:13.776Z,25.04
2019-05-01T01:30:56.009Z,25.03
2019-05-01T01:33:23.212Z,25.04
2019-05-01T01:35:57.004Z,25.03
2019-05-01T01:38:30.633Z,25.03
2019-05-01T01:41:04.367Z,25.03
2019-05-01T01:44:02.821Z,25.03
2019-05-01T01:46:37.820Z,25.03
2019-05-01T01:49:13.502Z,25.04
2019-05-01T01:51:47.438Z,25.04
2019-05-01T01:54:21.224Z,25.03
2019-05-01T01:56:54.898Z,25.03
2019-05-01T01:59:28.648Z,25.03
2019-05-01T02:02:21.548Z,25.02
2019-05-01T02:05:07.325Z,25.03
2019-05-01T02:07:41.043Z,25.02
2019-05-01T02:10:14.864Z,25.03
2019-05-01T02:12:48.776Z,25.03
2019-05-01T02:15:22.394Z,25.03
2019-05-01T02:17:56.124Z,25.03
2019-05-01T02:20:29.900Z,25.03
2019-05-01T02:23:03.627Z,25.03
2019-05-01T02:25:39.468Z,25.02
2019-05-01T02:28:27.501Z,25.03
2019-05-01T02:31:35.587Z,25.03
2019-05-01T02:34:09.415Z,25.03
2019-05-01T02:36:43.175Z,25.02
2019-05-01T02:39:16.904Z,25.02
2019-05-01T02:41:51.849Z,25.02
2019-05-01T02:44:43.038Z,25.02
2019-05-01T02:47:30.452Z,25.03
2019-05-01T02:50:07.958Z,25.03
2019-05-01T02:52:42.742Z,25.03
2019-05-01T02:55:32.231Z,25.02
2019-05-01T02:58:06.015Z,25.02
2019-05-01T03:00:39.719Z,25.02
2019-05-01T03:03:13.496Z,25.02
2019-05-01T03:05:47.247Z,25.02
2019-05-01T03:08:20.959Z,25.02
2019-05-01T03:10:54.752Z,25.01
2019-05-01T03:13:28.463Z,25.01
2019-05-01T03:16:02.231Z,25.02
2019-05-01T03:18:39.850Z,25.00
2019-05-01T03:21:21.753Z,25.01
2019-05-01T03:24:05.551Z,24.99
2019-05-01T03:26:39.379Z,25.00
2019-05-01T03:29:13.112Z,25.01
2019-05-01T03:32:12.919Z,25.00
2019-05-01T03:34:22.310Z,25.00
2019-05-01T03:36:57.141Z,24.99
2019-05-01T03:39:30.713Z,25.01
2019-05-01T03:42:04.501Z,25.00
2019-05-01T03:44:38.193Z,24.99
2019-05-01T03:47:12.039Z,25.01
2019-05-01T03:49:45.724Z,25.00
2019-05-01T03:52:19.527Z,25.01
2019-05-01T03:54:53.794Z,24.99
2019-05-01T03:57:27.623Z,25.00
2019-05-01T04:00:01.795Z,25.00
2019-05-01T04:02:57.430Z,25.00
2019-05-01T04:05:31.142Z,24.99
2019-05-01T04:08:04.971Z,24.99
2019-05-01T04:10:38.675Z,24.99
2019-05-01T04:13:12.379Z,25.00
2019-05-01T04:15:46.200Z,24.99
2019-05-01T04:18:20.030Z,24.99
2019-05-01T04:20:53.726Z,24.99
2019-05-01T04:23:27.489Z,24.99
2019-05-01T04:26:01.207Z,24.99
2019-05-01T04:28:53.773Z,24.99
2019-05-01T04:31:58.231Z,24.99
2019-05-01T04:34:41.813Z,24.99
2019-05-01T04:37:16.756Z,25.00
2019-05-01T04:39:50.468Z,25.00
2019-05-01T04:42:24.323Z,25.00
2019-05-01T04:44:58.061Z,24.99
2019-05-01T04:47:31.956Z,24.99
2019-05-01T04:50:05.885Z,24.99
2019-05-01T04:52:39.930Z,25.00
2019-05-01T04:55:13.502Z,24.98
2019-05-01T04:57:47.267Z,24.99
2019-05-01T05:00:22.642Z,25.00
2019-05-01T05:03:04.971Z,25.00
2019-05-01T05:05:38.037Z,25.01
2019-05-01T05:08:14.275Z,25.01
2019-05-01T05:10:49.086Z,25.01
2019-05-01T05:13:30.658Z,25.03
2019-05-01T05:16:25.699Z,25.03
2019-05-01T05:18:59.330Z,25.04
2019-05-01T05:21:33.157Z,25.04
2019-05-01T05:24:06.864Z,25.03
2019-05-01T05:26:40.642Z,25.04
2019-05-01T05:29:14.402Z,25.04
2019-05-01T05:31:48.085Z,25.04
2019-05-01T05:34:22.074Z,25.04
2019-05-01T05:36:57.300Z,25.04
2019-05-01T05:39:39.123Z,25.04
2019-05-01T05:42:12.876Z,25.04
2019-05-01T05:44:48.320Z,25.06
2019-05-01T05:47:25.303Z,25.06
2019-05-01T05:49:57.772Z,25.06
2019-05-01T05:52:37.728Z,25.07
2019-05-01T05:55:24.947Z,25.06
2019-05-01T05:58:23.494Z,25.09
2019-05-01T06:01:17.041Z,25.08
2019-05-01T06:04:20.463Z,25.09
2019-05-01T06:07:10.556Z,25.10
2019-05-01T06:09:52.037Z,25.10
2019-05-01T06:12:46.674Z,25.12
2019-05-01T06:15:41.300Z,25.11
2019-05-01T06:18:23.423Z,25.12
2019-05-01T06:21:05.140Z,25.13
2019-05-01T06:23:46.986Z,25.16
2019-05-01T06:26:45.259Z,25.16
2019-05-01T06:29:19.067Z,25.16
2019-05-01T06:31:53.987Z,25.16
2019-05-01T06:34:29.788Z,25.18
2019-05-01T06:37:03.692Z,25.19
2019-05-01T06:39:37.774Z,25.20
2019-05-01T06:42:15.078Z,25.18
2019-05-01T06:44:55.215Z,25.17
2019-05-01T06:47:43.031Z,25.16
2019-05-01T06:50:31.946Z,25.14
2019-05-01T06:53:06.443Z,25.12
2019-05-01T06:55:41.499Z,25.12
2019-05-01T06:58:20.370Z,25.11
2019-05-01T07:00:51.027Z,25.11
2019-05-01T07:03:24.644Z,25.10
2019-05-01T07:05:58.805Z,25.09
2019-05-01T07:08:34.185Z,25.09
2019-05-01T07:11:10.881Z,25.09
2019-05-01T07:13:55.361Z,25.10
2019-05-01T07:16:27.723Z,25.10
2019-05-01T07:19:05.983Z,25.09
2019-05-01T07:21:39.294Z,25.09
2019-05-01T07:24:13.040Z,25.09
2019-05-01T07:26:48.019Z,25.06
2019-05-01T07:29:24.455Z,25.06
2019-05-01T07:32:01.727Z,25.05
2019-05-01T07:34:33.665Z,25.07
2019-05-01T07:37:08.645Z,25.07
2019-05-01T07:39:44.808Z,25.10
2019-05-01T07:42:31.758Z,25.14
2019-05-01T07:45:26.598Z,25.11
2019-05-01T07:48:00.908Z,25.13
2019-05-01T07:50:35.735Z,25.10
2019-05-01T07:53:09.360Z,25.09
2019-05-01T07:55:43.015Z,25.08
2019-05-01T07:58:18.150Z,25.10
2019-05-01T08:01:13.239Z,25.11
2019-05-01T08:03:46.862Z,25.11
2019-05-01T08:06:21.771Z,25.12
2019-05-01T08:08:56.479Z,25.14
2019-05-01T08:11:30.347Z,25.14
2019-05-01T08:14:07.548Z,25.10
2019-05-01T08:16:42.575Z,25.10
2019-05-01T08:19:26.408Z,25.10
2019-05-01T08:22:08.445Z,25.08
2019-05-01T08:24:42.445Z,25.04
2019-05-01T08:27:35.324Z,25.03
2019-05-01T08:30:28.574Z,25.02
2019-05-01T08:33:20.521Z,25.00
2019-05-01T08:35:54.354Z,25.00
2019-05-01T08:38:29.837Z,24.96
2019-05-01T08:41:03.788Z,24.93
2019-05-01T08:43:38.789Z,24.89
2019-05-01T08:46:34.841Z,24.88
2019-05-01T08:49:17.042Z,24.88
2019-05-01T08:51:50.782Z,24.91
2019-05-01T08:54:28.778Z,24.91
2019-05-01T08:57:01.211Z,24.92
2019-05-01T08:59:34.951Z,23.85
2019-05-01T09:02:09.833Z,24.25
2019-05-01T09:04:43.777Z,24.61
2019-05-01T09:07:19.108Z,24.75
2019-05-01T09:09:53.034Z,24.80
2019-05-01T09:12:26.780Z,24.85
2019-05-01T09:15:00.532Z,24.71
2019-05-01T09:17:34.558Z,24.84
2019-05-01T09:20:08.880Z,24.87
2019-05-01T09:22:42.616Z,24.89
2019-05-01T09:25:19.422Z,24.89
2019-05-01T09:27:59.483Z,24.88
2019-05-01T09:30:37.644Z,24.90
2019-05-01T09:33:11.820Z,24.89
2019-05-01T09:35:46.746Z,24.89
2019-05-01T09:38:20.573Z,24.87
2019-05-01T09:40:54.343Z,24.90
2019-05-01T09:43:30.915Z,24.89
2019-05-01T09:46:03.695Z,24.95
2019-05-01T09:48:37.544Z,24.91
2019-05-01T09:51:30.129Z,24.93
2019-05-01T09:54:10.081Z,24.82
2019-05-01T09:56:44.802Z,24.78
2019-05-01T09:59:19.095Z,24.85
2019-05-01T10:01:52.947Z,24.89
2019-05-01T10:04:30.120Z,24.92
2019-05-01T10:07:02.459Z,24.92
2019-05-01T10:09:36.307Z,24.93
2019-05-01T10:12:11.642Z,24.93
2019-05-01T10:14:45.640Z,24.94
2019-05-01T10:17:20.038Z,24.93
2019-05-01T10:19:53.930Z,24.69
2019-05-01T10:22:32.894Z,24.82
2019-05-01T10:25:08.568Z,24.88
2019-05-01T10:27:43.386Z,24.91
2019-05-01T10:30:31.759Z,24.91
2019-05-01T10:33:10.877Z,24.92
2019-05-01T10:36:18.321Z,24.89
2019-05-01T10:38:46.829Z,24.93
2019-05-01T10:41:20.440Z,24.93
2019-05-01T10:43:54.506Z,24.92
2019-05-01T10:46:28.341Z,24.93
2019-05-01T10:49:02.346Z,24.93
2019-05-01T10:51:36.060Z,24.92
2019-05-01T10:54:09.863Z,24.93
2019-05-01T10:56:43.579Z,24.74
2019-05-01T10:59:17.424Z,24.68
2019-05-01T11:01:55.035Z,24.74
2019-05-01T11:04:28.703Z,24.74
2019-05-01T11:07:02.708Z,24.82
2019-05-01T11:09:36.436Z,24.86
2019-05-01T11:12:10.277Z,24.86
2019-05-01T11:14:44.057Z,24.89
2019-05-01T11:17:21.269Z,24.87
2019-05-01T11:19:55.022Z,24.85
2019-05-01T11:22:28.741Z,24.87
2019-05-01T11:25:03.014Z,24.88
2019-05-01T11:27:36.716Z,24.88
2019-05-01T11:30:10.652Z,24.90
2019-05-01T11:32:52.560Z,24.81
2019-05-01T11:35:47.828Z,24.85
2019-05-01T11:38:43.539Z,24.89
2019-05-01T11:41:24.406Z,24.89
2019-05-01T11:43:58.087Z,24.89
2019-05-01T11:46:32.095Z,24.90
2019-05-01T11:49:05.900Z,24.92
2019-05-01T11:51:39.634Z,24.94
2019-05-01T11:54:13.298Z,24.94
2019-05-01T11:56:47.046Z,24.94
2019-05-01T11:59:20.921Z,24.90
2019-05-01T12:01:54.612Z,24.92
2019-05-01T12:04:28.424Z,24.93
2019-05-01T12:07:02.313Z,24.98
2019-05-01T12:09:36.132Z,25.04
2019-05-01T12:12:12.394Z,25.03
2019-05-01T12:14:46.125Z,25.04
2019-05-01T12:17:25.137Z,25.05
2019-05-01T12:19:59.038Z,25.07
2019-05-01T12:22:32.892Z,25.10
2019-05-01T12:25:06.932Z,25.18
2019-05-01T12:27:40.574Z,25.10
2019-05-01T12:30:15.738Z,24.97
2019-05-01T12:32:49.447Z,24.85
2019-05-01T12:35:23.182Z,24.89
2019-05-01T12:37:59.601Z,25.03
2019-05-01T12:40:33.308Z,25.11
2019-05-01T12:43:07.187Z,25.12
2019-05-01T12:45:41.701Z,25.15
2019-05-01T12:48:15.529Z,25.14
2019-05-01T12:50:50.805Z,25.18
2019-05-01T12:53:32.053Z,25.19
2019-05-01T12:56:17.693Z,25.21
2019-05-01T12:58:51.365Z,25.19
2019-05-01T13:01:25.157Z,25.18
2019-05-01T13:03:58.976Z,25.20
2019-05-01T13:06:33.075Z,25.13
2019-05-01T13:09:08.193Z,24.94
2019-05-01T13:11:41.890Z,25.05
2019-05-01T13:14:15.737Z,25.12
2019-05-01T13:16:49.467Z,25.16
2019-05-01T13:19:23.072Z,25.17
2019-05-01T13:21:57.007Z,25.18
2019-05-01T13:24:30.734Z,25.20
2019-05-01T13:27:11.893Z,25.22
2019-05-01T13:30:13.627Z,25.30
2019-05-01T13:32:49.800Z,25.26
2019-05-01T13:35:23.443Z,25.27
2019-05-01T13:37:57.220Z,25.32
2019-05-01T13:40:30.825Z,25.32
2019-05-01T13:43:04.556Z,25.31
2019-05-01T13:45:38.270Z,25.26
2019-05-01T13:48:12.156Z,25.26
2019-05-01T13:50:46.094Z,25.25
2019-05-01T13:53:19.705Z,25.25
2019-05-01T13:55:53.583Z,25.24
2019-05-01T13:58:27.340Z,25.25
2019-05-01T14:01:01.153Z,25.25
2019-05-01T14:03:34.833Z,25.26
2019-05-01T14:06:08.835Z,25.26
2019-05-01T14:08:43.227Z,25.26
2019-05-01T14:11:18.035Z,25.28
2019-05-01T14:13:51.817Z,25.30
2019-05-01T14:16:25.699Z,25.34
2019-05-01T14:18:59.500Z,25.35
2019-05-01T14:21:41.472Z,25.34
2019-05-01T14:24:31.457Z,25.36
2019-05-01T14:27:07.600Z,25.38
2019-05-01T14:29:40.720Z,25.34
2019-05-01T14:32:14.490Z,25.37
2019-05-01T14:34:48.426Z,25.37
2019-05-01T14:37:29.399Z,25.41
2019-05-01T14:39:57.620Z,25.38
2019-05-01T14:42:31.480Z,25.39
2019-05-01T14:45:05.588Z,25.40
2019-05-01T14:47:39.418Z,25.40
2019-05-01T14:50:13.046Z,25.39
2019-05-01T14:52:46.781Z,25.39
2019-05-01T14:55:20.520Z,25.38
2019-05-01T14:57:54.359Z,25.37
2019-05-01T15:00:29.269Z,25.38
2019-05-01T15:03:02.996Z,25.39
2019-05-01T15:05:36.741Z,25.38
2019-05-01T15:08:10.489Z,25.38
2019-05-01T15:10:44.199Z,25.38
2019-05-01T15:13:32.643Z,25.37
2019-05-01T15:16:11.881Z,25.38
2019-05-01T15:19:04.005Z,25.38
2019-05-01T15:21:37.716Z,25.38
2019-05-01T15:24:13.595Z,25.37
2019-05-01T15:26:47.387Z,25.37
2019-05-01T15:29:21.094Z,25.38
2019-05-01T15:31:54.799Z,25.38
2019-05-01T15:34:28.526Z,25.38
2019-05-01T15:37:02.124Z,25.36
2019-05-01T15:39:42.255Z,25.33
2019-05-01T15:42:33.836Z,25.30
2019-05-01T15:45:07.791Z,25.33
2019-05-01T15:47:41.605Z,25.35
2019-05-01T15:50:15.350Z,25.35
2019-05-01T15:52:49.203Z,25.35
2019-05-01T15:55:23.019Z,25.37
2019-05-01T15:57:56.897Z,25.39
2019-05-01T16:00:30.656Z,25.38
2019-05-01T16:03:04.412Z,25.38
2019-05-01T16:05:38.328Z,25.39
2019-05-01T16:08:12.295Z,25.39
2019-05-01T16:10:54.126Z,25.39
2019-05-01T16:13:27.729Z,25.38
2019-05-01T16:16:01.647Z,25.38
2019-05-01T16:18:35.451Z,25.38
2019-05-01T16:21:09.242Z,25.39
2019-05-01T16:23:42.953Z,25.37
2019-05-01T16:26:16.811Z,25.37
2019-05-01T16:28:50.546Z,25.39
2019-05-01T16:31:24.387Z,25.39
2019-05-01T16:33:58.214Z,25.39
2019-05-01T16:36:32.630Z,25.39
2019-05-01T16:39:24.000Z,25.40
2019-05-01T16:41:57.839Z,25.39
2019-05-01T16:44:33.029Z,25.40
2019-05-01T16:47:07.096Z,25.39
2019-05-01T16:49:40.980Z,25.39
2019-05-01T16:52:15.752Z,25.38
2019-05-01T16:54:59.058Z,25.39
2019-05-01T16:57:25.481Z,25.38
2019-05-01T16:59:59.206Z,25.40
2019-05-01T17:02:55.256Z,25.39
2019-05-01T17:05:47.401Z,25.37
2019-05-01T17:08:58.194Z,25.35
2019-05-01T17:11:33.603Z,25.35
2019-05-01T17:14:09.349Z,25.35
2019-05-01T17:16:43.154Z,25.35
2019-05-01T17:19:16.798Z,25.37
2019-05-01T17:21:50.657Z,25.38
2019-05-01T17:24:24.442Z,25.37
2019-05-01T17:26:58.244Z,25.34
2019-05-01T17:29:32.497Z,25.35
2019-05-01T17:32:08.117Z,25.34
2019-05-01T17:34:41.817Z,25.35
2019-05-01T17:37:15.556Z,25.36
2019-05-01T17:39:49.330Z,25.36
2019-05-01T17:42:23.170Z,25.36
2019-05-01T17:44:59.687Z,25.35
2019-05-01T17:47:32.688Z,25.35
2019-05-01T17:50:06.502Z,25.35
2019-05-01T17:52:40.445Z,25.37
2019-05-01T17:55:14.198Z,25.35
2019-05-01T17:57:47.974Z,25.36
2019-05-01T18:00:52.496Z,25.35
2019-05-01T18:03:51.807Z,25.35
2019-05-01T18:06:34.319Z,25.35
2019-05-01T18:09:13.687Z,25.35
2019-05-01T18:11:47.324Z,25.34
2019-05-01T18:14:20.734Z,25.35
2019-05-01T18:16:54.510Z,25.35
2019-05-01T18:19:30.023Z,25.35
2019-05-01T18:22:10.048Z,25.37
2019-05-01T18:24:53.823Z,25.37
2019-05-01T18:27:49.924Z,25.38
2019-05-01T18:30:22.928Z,25.28
2019-05-01T18:32:56.713Z,25.25
2019-05-01T18:35:30.681Z,25.30
2019-05-01T18:38:20.403Z,25.32
2019-05-01T18:41:18.964Z,25.33
2019-05-01T18:43:53.053Z,25.33
2019-05-01T18:46:26.926Z,25.31
2019-05-01T18:49:00.656Z,25.31
2019-05-01T18:51:36.086Z,25.32
2019-05-01T18:54:09.927Z,25.32
2019-05-01T18:56:43.784Z,25.31
2019-05-01T18:59:17.593Z,25.33
2019-05-01T19:01:51.796Z,25.34
2019-05-01T19:04:25.694Z,25.32
2019-05-01T19:06:59.344Z,25.31
2019-05-01T19:09:36.505Z,25.31
2019-05-01T19:12:11.430Z,25.31
2019-05-01T19:14:45.157Z,25.31
2019-05-01T19:17:20.342Z,25.31
2019-05-01T19:19:54.230Z,25.31
2019-05-01T19:22:27.977Z,25.29
2019-05-01T19:25:02.442Z,25.30
2019-05-01T19:27:36.132Z,25.30
2019-05-01T19:30:14.938Z,25.30
2019-05-01T19:32:45.819Z,25.29
2019-05-01T19:35:23.803Z,25.29
2019-05-01T19:37:57.425Z,25.27
2019-05-01T19:40:32.646Z,25.28
2019-05-01T19:43:06.227Z,25.31
2019-05-01T19:45:39.879Z,25.31
2019-05-01T19:48:13.677Z,25.30
2019-05-01T19:50:48.342Z,25.30
2019-05-01T19:53:23.193Z,25.29
2019-05-01T19:55:57.216Z,25.29
2019-05-01T19:58:31.077Z,25.29
2019-05-01T20:01:05.142Z,25.11
2019-05-01T20:03:39.053Z,25.18
2019-05-01T20:06:12.777Z,25.24
2019-05-01T20:08:47.236Z,25.26
2019-05-01T20:11:20.912Z,25.28
2019-05-01T20:13:55.668Z,25.27
2019-05-01T20:16:31.038Z,25.28
2019-05-01T20:19:04.833Z,25.29
2019-05-01T20:21:41.662Z,25.29
2019-05-01T20:24:14.138Z,25.30
2019-05-01T20:26:47.800Z,25.30
2019-05-01T20:29:21.526Z,25.29
2019-05-01T20:31:55.310Z,25.29
2019-05-01T20:34:29.127Z,25.29
2019-05-01T20:37:03.026Z,25.30
2019-05-01T20:39:36.798Z,25.29
2019-05-01T20:42:11.564Z,25.30
2019-05-01T20:44:45.446Z,25.30
2019-05-01T20:47:34.524Z,25.30
2019-05-01T20:49:54.815Z,25.29
2019-05-01T20:52:28.684Z,25.28
2019-05-01T20:55:02.864Z,25.28
2019-05-01T20:57:38.294Z,25.27
2019-05-01T21:00:16.597Z,25.28
2019-05-01T21:02:48.073Z,25.28
2019-05-01T21:05:33.452Z,25.28
2019-05-01T21:08:16.220Z,25.27
2019-05-01T21:10:58.061Z,25.28
2019-05-01T21:13:32.158Z,25.26
2019-05-01T21:16:05.997Z,25.25
2019-05-01T21:18:39.693Z,25.25
2019-05-01T21:21:14.191Z,25.28
2019-05-01T21:23:52.712Z,25.28
2019-05-01T21:26:23.572Z,25.28
2019-05-01T21:28:57.445Z,25.27
2019-05-01T21:31:31.181Z,25.28
2019-05-01T21:34:05.103Z,25.28
2019-05-01T21:36:39.204Z,25.27
2019-05-01T21:39:14.841Z,25.27
2019-05-01T21:41:48.548Z,25.27
2019-05-01T21:44:23.367Z,25.30
2019-05-01T21:46:57.043Z,25.28
2019-05-01T21:49:30.702Z,25.29
2019-05-01T21:52:07.220Z,25.29
2019-05-01T21:54:40.169Z,25.31
2019-05-01T21:57:17.304Z,25.31
2019-05-01T21:59:49.448Z,25.29
2019-05-01T22:02:23.111Z,25.29
2019-05-01T22:04:57.794Z,25.30
2019-05-01T22:07:31.834Z,25.29
2019-05-01T22:10:06.477Z,25.28
2019-05-01T22:12:44.086Z,25.28
2019-05-01T22:15:23.306Z,25.28
2019-05-01T22:18:15.934Z,25.27
2019-05-01T22:20:58.407Z,25.28
2019-05-01T22:23:35.631Z,25.27
2019-05-01T22:26:09.823Z,25.26
2019-05-01T22:28:54.828Z,25.27
2019-05-01T22:31:52.922Z,25.26
2019-05-01T22:34:46.948Z,25.27
2019-05-01T22:37:20.769Z,25.27
2019-05-01T22:40:01.039Z,25.26
2019-05-01T22:42:34.685Z,25.26
2019-05-01T22:45:10.796Z,25.25
2019-05-01T22:47:46.036Z,25.25
2019-05-01T22:50:20.235Z,25.26
2019-05-01T22:52:54.117Z,25.25
2019-05-01T22:55:27.947Z,25.25
2019-05-01T22:58:02.057Z,25.24
2019-05-01T23:00:41.751Z,25.25
2019-05-01T23:03:21.087Z,25.25
2019-05-01T23:05:54.712Z,25.25
2019-05-01T23:08:28.587Z,25.24
2019-05-01T23:11:02.611Z,25.24
2019-05-01T23:13:36.381Z,25.24
2019-05-01T23:16:10.185Z,25.23
2019-05-01T23:18:47.031Z,25.23
2019-05-01T23:21:19.449Z,25.23
2019-05-01T23:23:56.831Z,25.23
2019-05-01T23:26:28.630Z,25.23
2019-05-01T23:29:02.974Z,25.23
2019-05-01T23:31:36.812Z,25.23
2019-05-01T23:34:10.564Z,25.22
2019-05-01T23:36:44.414Z,25.23
2019-05-01T23:39:18.176Z,25.22
2019-05-01T23:41:51.923Z,25.22
2019-05-01T23:44:25.855Z,25.22
2019-05-01T23:46:59.559Z,25.21
2019-05-01T23:49:33.231Z,25.22
2019-05-01T23:52:06.945Z,25.21
2019-05-01T23:54:40.817Z,25.21
2019-05-01T23:57:14.991Z,25.21
2019-05-01T23:59:49.948Z,25.21
